sensor_id;sensor_type;location;lat;lon;timestamp;temperature;humidity
69938;DHT22;57248;47.320;15.998;2023-03-01T00:00:23;-2.50;88.33
69938;DHT22;57248;47.320;15.998;2023-03-01T00:02:55;-2.48;88.53
69938;DHT22;57248;47.320;15.998;2023-03-01T00:05:27;-2.36;88.41
69938;DHT22;57248;47.320;15.998;2023-03-01T00:07:59;-2.39;88.15
69938;DHT22;57248;47.320;15.998;2023-03-01T00:10:31;-2.31;88.06
69938;DHT22;57248;47.320;15.998;2023-03-01T00:13:03;-2.31;87.55
69938;DHT22;57248;47.320;15.998;2023-03-01T00:15:31;-2.39;87.93
69938;DHT22;57248;47.320;15.998;2023-03-01T00:18:03;-2.29;88.33
69938;DHT22;57248;47.320;15.998;2023-03-01T00:20:35;-2.34;89.34
69938;DHT22;57248;47.320;15.998;2023-03-01T00:23:07;-2.36;89.95
69938;DHT22;57248;47.320;15.998;2023-03-01T00:25:43;-2.25;89.46
69938;DHT22;57248;47.320;15.998;2023-03-01T00:28:15;-2.12;89.04
69938;DHT22;57248;47.320;15.998;2023-03-01T00:30:47;-2.12;88.69
69938;DHT22;57248;47.320;15.998;2023-03-01T00:33:19;-2.11;88.39
69938;DHT22;57248;47.320;15.998;2023-03-01T00:35:51;-2.05;88.90
69938;DHT22;57248;47.320;15.998;2023-03-01T00:38:23;-1.99;88.08
69938;DHT22;57248;47.320;15.998;2023-03-01T00:40:55;-1.98;88.44
69938;DHT22;57248;47.320;15.998;2023-03-01T00:43:27;-1.99;88.78
69938;DHT22;57248;47.320;15.998;2023-03-01T00:46:01;-1.95;88.66
69938;DHT22;57248;47.320;15.998;2023-03-01T00:48:33;-1.81;88.34
69938;DHT22;57248;47.320;15.998;2023-03-01T00:51:16;-1.86;88.91
69938;DHT22;57248;47.320;15.998;2023-03-01T00:53:51;-1.94;89.41
69938;DHT22;57248;47.320;15.998;2023-03-01T00:56:24;-1.88;88.95
69938;DHT22;57248;47.320;15.998;2023-03-01T00:58:57;-1.80;88.58
69938;DHT22;57248;47.320;15.998;2023-03-01T01:01:30;-1.76;89.70
69938;DHT22;57248;47.320;15.998;2023-03-01T01:04:09;-1.73;89.22
69938;DHT22;57248;47.320;15.998;2023-03-01T01:06:44;-1.71;88.60
69938;DHT22;57248;47.320;15.998;2023-03-01T01:09:17;-1.71;89.12
69938;DHT22;57248;47.320;15.998;2023-03-01T01:11:50;-1.77;88.47
69938;DHT22;57248;47.320;15.998;2023-03-01T01:14:22;-1.70;88.86
69938;DHT22;57248;47.320;15.998;2023-03-01T01:16:54;-1.57;88.16
69938;DHT22;57248;47.320;15.998;2023-03-01T01:19:26;-1.57;87.33
69938;DHT22;57248;47.320;15.998;2023-03-01T01:21:58;-1.53;87.62
69938;DHT22;57248;47.320;15.998;2023-03-01T01:24:30;-1.55;88.16
69938;DHT22;57248;47.320;15.998;2023-03-01T01:27:03;-1.50;87.36
69938;DHT22;57248;47.320;15.998;2023-03-01T01:29:35;-1.50;87.51
69938;DHT22;57248;47.320;15.998;2023-03-01T01:32:07;-1.49;88.30
69938;DHT22;57248;47.320;15.998;2023-03-01T01:34:40;-1.46;88.23
69938;DHT22;57248;47.320;15.998;2023-03-01T01:37:12;-1.39;87.75
69938;DHT22;57248;47.320;15.998;2023-03-01T01:39:44;-1.34;87.38
69938;DHT22;57248;47.320;15.998;2023-03-01T01:42:17;-1.39;86.91
69938;DHT22;57248;47.320;15.998;2023-03-01T01:48:05;-1.29;86.98
69938;DHT22;57248;47.320;15.998;2023-03-01T01:50:39;-1.25;86.93
69938;DHT22;57248;47.320;15.998;2023-03-01T01:53:26;-1.25;86.55
69938;DHT22;57248;47.320;15.998;2023-03-01T01:56:00;-1.19;86.65
69938;DHT22;57248;47.320;15.998;2023-03-01T01:58:27;-1.26;86.79
69938;DHT22;57248;47.320;15.998;2023-03-01T02:01:01;-1.25;87.73
69938;DHT22;57248;47.320;15.998;2023-03-01T02:03:37;-1.22;87.28
69938;DHT22;57248;47.320;15.998;2023-03-01T02:06:24;-1.29;86.95
69938;DHT22;57248;47.320;15.998;2023-03-01T02:09:05;-1.32;88.39
69938;DHT22;57248;47.320;15.998;2023-03-01T02:11:38;-1.29;88.57
69938;DHT22;57248;47.320;15.998;2023-03-01T02:14:11;-1.22;88.26
69938;DHT22;57248;47.320;15.998;2023-03-01T02:16:36;-1.12;87.41
69938;DHT22;57248;47.320;15.998;2023-03-01T02:19:14;-1.08;86.98
69938;DHT22;57248;47.320;15.998;2023-03-01T02:22:00;-1.06;87.57
69938;DHT22;57248;47.320;15.998;2023-03-01T02:30:33;-1.04;87.62
69938;DHT22;57248;47.320;15.998;2023-03-01T02:33:06;-0.95;87.49
69938;DHT22;57248;47.320;15.998;2023-03-01T02:35:38;-1.01;86.77
69938;DHT22;57248;47.320;15.998;2023-03-01T02:38:11;-0.91;86.89
69938;DHT22;57248;47.320;15.998;2023-03-01T02:40:43;-0.89;86.06
69938;DHT22;57248;47.320;15.998;2023-03-01T02:43:17;-0.91;85.82
69938;DHT22;57248;47.320;15.998;2023-03-01T02:45:52;-0.89;85.89
69938;DHT22;57248;47.320;15.998;2023-03-01T02:48:19;-0.92;85.65
69938;DHT22;57248;47.320;15.998;2023-03-01T02:51:05;-0.92;85.89
69938;DHT22;57248;47.320;15.998;2023-03-01T02:54:10;-0.91;85.62
69938;DHT22;57248;47.320;15.998;2023-03-01T02:56:44;-0.92;85.69
69938;DHT22;57248;47.320;15.998;2023-03-01T02:59:24;-0.97;86.14
69938;DHT22;57248;47.320;15.998;2023-03-01T03:02:00;-0.97;86.16
69938;DHT22;57248;47.320;15.998;2023-03-01T03:04:32;-0.98;86.07
69938;DHT22;57248;47.320;15.998;2023-03-01T03:07:04;-0.95;86.22
69938;DHT22;57248;47.320;15.998;2023-03-01T03:09:36;-0.91;86.85
69938;DHT22;57248;47.320;15.998;2023-03-01T03:12:08;-0.88;86.25
69938;DHT22;57248;47.320;15.998;2023-03-01T03:14:40;-0.91;85.84
69938;DHT22;57248;47.320;15.998;2023-03-01T03:17:12;-0.87;86.15
69938;DHT22;57248;47.320;15.998;2023-03-01T03:19:37;-0.87;86.57
69938;DHT22;57248;47.320;15.998;2023-03-01T03:22:09;-0.87;86.35
69938;DHT22;57248;47.320;15.998;2023-03-01T03:24:41;-0.83;86.23
69938;DHT22;57248;47.320;15.998;2023-03-01T03:27:13;-0.85;86.24
69938;DHT22;57248;47.320;15.998;2023-03-01T03:29:45;-0.84;86.67
69938;DHT22;57248;47.320;15.998;2023-03-01T03:32:17;-0.77;86.62
69938;DHT22;57248;47.320;15.998;2023-03-01T03:34:49;-0.78;87.74
69938;DHT22;57248;47.320;15.998;2023-03-01T03:37:21;-0.80;87.45
69938;DHT22;57248;47.320;15.998;2023-03-01T03:40:11;-0.75;87.21
69938;DHT22;57248;47.320;15.998;2023-03-01T03:42:47;-0.73;86.77
69938;DHT22;57248;47.320;15.998;2023-03-01T03:45:20;-0.68;86.34
69938;DHT22;57248;47.320;15.998;2023-03-01T03:47:52;-0.68;86.32
69938;DHT22;57248;47.320;15.998;2023-03-01T03:50:24;-0.71;87.19
69938;DHT22;57248;47.320;15.998;2023-03-01T03:53:11;-0.68;86.98
69938;DHT22;57248;47.320;15.998;2023-03-01T03:55:44;-0.67;86.70
69938;DHT22;57248;47.320;15.998;2023-03-01T03:58:16;-0.67;86.44
69938;DHT22;57248;47.320;15.998;2023-03-01T04:00:53;-0.64;86.50
69938;DHT22;57248;47.320;15.998;2023-03-01T04:03:28;-0.63;86.60
69938;DHT22;57248;47.320;15.998;2023-03-01T04:06:02;-0.58;86.07
69938;DHT22;57248;47.320;15.998;2023-03-01T04:08:28;-0.56;86.25
69938;DHT22;57248;47.320;15.998;2023-03-01T04:11:02;-0.53;85.98
69938;DHT22;57248;47.320;15.998;2023-03-01T04:13:56;-0.56;85.77
69938;DHT22;57248;47.320;15.998;2023-03-01T04:16:29;-0.53;86.27
69938;DHT22;57248;47.320;15.998;2023-03-01T04:19:01;-0.56;86.46
69938;DHT22;57248;47.320;15.998;2023-03-01T04:21:33;-0.53;86.21
69938;DHT22;57248;47.320;15.998;2023-03-01T04:24:05;-0.57;86.28
69938;DHT22;57248;47.320;15.998;2023-03-01T04:26:38;-0.53;86.08
69938;DHT22;57248;47.320;15.998;2023-03-01T04:29:03;-0.50;86.32
69938;DHT22;57248;47.320;15.998;2023-03-01T04:31:36;-0.47;85.95
69938;DHT22;57248;47.320;15.998;2023-03-01T04:34:08;-0.49;86.27
69938;DHT22;57248;47.320;15.998;2023-03-01T04:36:40;-0.46;86.02
69938;DHT22;57248;47.320;15.998;2023-03-01T04:39:12;-0.46;85.77
69938;DHT22;57248;47.320;15.998;2023-03-01T04:41:44;-0.44;85.72
69938;DHT22;57248;47.320;15.998;2023-03-01T04:44:16;-0.44;85.90
69938;DHT22;57248;47.320;15.998;2023-03-01T04:46:49;-0.44;85.77
69938;DHT22;57248;47.320;15.998;2023-03-01T04:49:21;-0.43;86.70
69938;DHT22;57248;47.320;15.998;2023-03-01T04:51:53;-0.43;86.63
69938;DHT22;57248;47.320;15.998;2023-03-01T04:54:25;-0.34;86.37
69938;DHT22;57248;47.320;15.998;2023-03-01T04:56:58;-0.47;85.70
69938;DHT22;57248;47.320;15.998;2023-03-01T04:59:31;-0.40;86.04
69938;DHT22;57248;47.320;15.998;2023-03-01T05:02:03;-0.38;86.14
69938;DHT22;57248;47.320;15.998;2023-03-01T05:04:35;-0.36;86.13
69938;DHT22;57248;47.320;15.998;2023-03-01T05:07:07;-0.34;86.00
69938;DHT22;57248;47.320;15.998;2023-03-01T05:09:39;-0.36;85.95
69938;DHT22;57248;47.320;15.998;2023-03-01T05:12:11;-0.34;85.80
69938;DHT22;57248;47.320;15.998;2023-03-01T05:14:44;-0.38;85.94
69938;DHT22;57248;47.320;15.998;2023-03-01T05:17:17;-0.46;86.23
69938;DHT22;57248;47.320;15.998;2023-03-01T05:19:49;-0.38;86.12
69938;DHT22;57248;47.320;15.998;2023-03-01T05:22:21;-0.38;85.51
69938;DHT22;57248;47.320;15.998;2023-03-01T05:24:54;-0.34;85.95
69938;DHT22;57248;47.320;15.998;2023-03-01T05:27:20;-0.32;85.85
69938;DHT22;57248;47.320;15.998;2023-03-01T05:29:54;0.54;92.36
69938;DHT22;57248;47.320;15.998;2023-03-01T05:32:27;-0.01;86.14
69938;DHT22;57248;47.320;15.998;2023-03-01T05:35:03;-0.22;85.98
69938;DHT22;57248;47.320;15.998;2023-03-01T05:37:35;-0.03;87.39
69938;DHT22;57248;47.320;15.998;2023-03-01T05:40:09;-0.15;85.10
69938;DHT22;57248;47.320;15.998;2023-03-01T05:42:49;-0.15;84.56
69938;DHT22;57248;47.320;15.998;2023-03-01T05:45:23;-0.10;84.30
69938;DHT22;57248;47.320;15.998;2023-03-01T05:47:55;-0.07;84.07
69938;DHT22;57248;47.320;15.998;2023-03-01T05:50:26;-0.07;84.19
69938;DHT22;57248;47.320;15.998;2023-03-01T05:55:40;-0.02;83.80
69938;DHT22;57248;47.320;15.998;2023-03-01T05:58:16;-0.02;84.05
69938;DHT22;57248;47.320;15.998;2023-03-01T06:00:48;-0.01;84.52
69938;DHT22;57248;47.320;15.998;2023-03-01T06:03:21;-0.01;83.97
69938;DHT22;57248;47.320;15.998;2023-03-01T06:05:58;0.02;85.08
69938;DHT22;57248;47.320;15.998;2023-03-01T06:08:30;0.28;85.67
69938;DHT22;57248;47.320;15.998;2023-03-01T06:11:02;0.18;83.57
69938;DHT22;57248;47.320;15.998;2023-03-01T06:13:34;0.15;83.29
69938;DHT22;57248;47.320;15.998;2023-03-01T06:16:06;0.16;82.83
69938;DHT22;57248;47.320;15.998;2023-03-01T06:18:40;0.25;82.54
69938;DHT22;57248;47.320;15.998;2023-03-01T06:21:13;0.26;83.74
69938;DHT22;57248;47.320;15.998;2023-03-01T06:23:38;0.30;84.35
69938;DHT22;57248;47.320;15.998;2023-03-01T06:26:11;0.28;84.30
69938;DHT22;57248;47.320;15.998;2023-03-01T06:28:43;0.28;84.59
69938;DHT22;57248;47.320;15.998;2023-03-01T06:31:17;0.35;84.24
69938;DHT22;57248;47.320;15.998;2023-03-01T06:33:49;0.43;84.91
69938;DHT22;57248;47.320;15.998;2023-03-01T06:36:14;0.43;84.11
69938;DHT22;57248;47.320;15.998;2023-03-01T06:38:50;3.57;90.75
69938;DHT22;57248;47.320;15.998;2023-03-01T06:41:22;1.53;83.03
69938;DHT22;57248;47.320;15.998;2023-03-01T06:43:54;1.11;82.36
69938;DHT22;57248;47.320;15.998;2023-03-01T06:46:26;1.03;80.49
69938;DHT22;57248;47.320;15.998;2023-03-01T06:48:58;0.98;80.09
69938;DHT22;57248;47.320;15.998;2023-03-01T06:51:37;0.94;81.44
69938;DHT22;57248;47.320;15.998;2023-03-01T06:54:09;0.97;81.65
69938;DHT22;57248;47.320;15.998;2023-03-01T06:56:49;1.04;81.15
69938;DHT22;57248;47.320;15.998;2023-03-01T06:59:22;0.95;79.87
69938;DHT22;57248;47.320;15.998;2023-03-01T07:01:54;0.91;79.58
69938;DHT22;57248;47.320;15.998;2023-03-01T07:04:26;0.95;78.68
69938;DHT22;57248;47.320;15.998;2023-03-01T07:07:01;1.08;78.35
69938;DHT22;57248;47.320;15.998;2023-03-01T07:09:33;1.14;78.06
69938;DHT22;57248;47.320;15.998;2023-03-01T07:12:05;1.22;78.09
69938;DHT22;57248;47.320;15.998;2023-03-01T07:14:38;1.27;77.53
69938;DHT22;57248;47.320;15.998;2023-03-01T07:17:10;1.35;77.40
69938;DHT22;57248;47.320;15.998;2023-03-01T07:19:35;1.38;77.52
69938;DHT22;57248;47.320;15.998;2023-03-01T07:22:07;1.45;77.63
69938;DHT22;57248;47.320;15.998;2023-03-01T07:24:42;1.53;77.16
69938;DHT22;57248;47.320;15.998;2023-03-01T07:27:14;1.56;77.38
69938;DHT22;57248;47.320;15.998;2023-03-01T07:29:46;1.60;77.40
69938;DHT22;57248;47.320;15.998;2023-03-01T07:32:18;1.66;77.13
69938;DHT22;57248;47.320;15.998;2023-03-01T07:34:51;1.55;77.14
69938;DHT22;57248;47.320;15.998;2023-03-01T07:37:23;1.52;76.44
69938;DHT22;57248;47.320;15.998;2023-03-01T07:39:55;1.59;76.92
69938;DHT22;57248;47.320;15.998;2023-03-01T07:42:27;1.66;75.86
69938;DHT22;57248;47.320;15.998;2023-03-01T07:44:59;1.79;75.16
69938;DHT22;57248;47.320;15.998;2023-03-01T07:47:31;1.83;75.62
69938;DHT22;57248;47.320;15.998;2023-03-01T07:50:04;1.89;74.57
69938;DHT22;57248;47.320;15.998;2023-03-01T07:52:47;1.92;74.91
69938;DHT22;57248;47.320;15.998;2023-03-01T07:55:20;1.97;73.50
69938;DHT22;57248;47.320;15.998;2023-03-01T07:57:59;2.02;72.51
69938;DHT22;57248;47.320;15.998;2023-03-01T08:00:31;2.13;72.91
69938;DHT22;57248;47.320;15.998;2023-03-01T08:03:03;2.23;73.01
69938;DHT22;57248;47.320;15.998;2023-03-01T08:05:36;2.33;72.02
69938;DHT22;57248;47.320;15.998;2023-03-01T08:08:09;2.44;71.86
69938;DHT22;57248;47.320;15.998;2023-03-01T08:10:41;2.52;71.66
69938;DHT22;57248;47.320;15.998;2023-03-01T08:13:14;2.48;71.95
69938;DHT22;57248;47.320;15.998;2023-03-01T08:15:46;2.54;72.14
69938;DHT22;57248;47.320;15.998;2023-03-01T08:18:20;2.62;71.83
69938;DHT22;57248;47.320;15.998;2023-03-01T08:20:52;2.71;71.18
69938;DHT22;57248;47.320;15.998;2023-03-01T08:23:24;2.95;71.77
69938;DHT22;57248;47.320;15.998;2023-03-01T08:26:15;3.06;71.21
69938;DHT22;57248;47.320;15.998;2023-03-01T08:28:48;3.10;71.72
69938;DHT22;57248;47.320;15.998;2023-03-01T08:31:22;3.26;71.06
69938;DHT22;57248;47.320;15.998;2023-03-01T08:33:58;3.19;70.72
69938;DHT22;57248;47.320;15.998;2023-03-01T08:36:35;3.38;70.17
69938;DHT22;57248;47.320;15.998;2023-03-01T08:39:08;3.53;70.57
69938;DHT22;57248;47.320;15.998;2023-03-01T08:41:41;3.78;68.62
69938;DHT22;57248;47.320;15.998;2023-03-01T08:44:14;4.17;68.74
69938;DHT22;57248;47.320;15.998;2023-03-01T08:46:48;4.17;67.68
69938;DHT22;57248;47.320;15.998;2023-03-01T08:49:21;4.34;67.04
69938;DHT22;57248;47.320;15.998;2023-03-01T08:52:08;4.47;65.04
69938;DHT22;57248;47.320;15.998;2023-03-01T08:54:48;4.74;65.53
69938;DHT22;57248;47.320;15.998;2023-03-01T08:57:20;4.74;64.64
69938;DHT22;57248;47.320;15.998;2023-03-01T08:59:52;5.11;63.49
69938;DHT22;57248;47.320;15.998;2023-03-01T09:02:24;5.60;63.19
69938;DHT22;57248;47.320;15.998;2023-03-01T09:04:56;6.03;62.18
69938;DHT22;57248;47.320;15.998;2023-03-01T09:07:28;5.84;62.17
69938;DHT22;57248;47.320;15.998;2023-03-01T09:10:00;5.74;62.31
69938;DHT22;57248;47.320;15.998;2023-03-01T09:12:32;5.60;62.12
69938;DHT22;57248;47.320;15.998;2023-03-01T09:15:04;5.84;59.75
69938;DHT22;57248;47.320;15.998;2023-03-01T09:17:36;6.25;59.98
69938;DHT22;57248;47.320;15.998;2023-03-01T09:20:01;6.10;60.44
69938;DHT22;57248;47.320;15.998;2023-03-01T09:22:34;6.65;58.92
69938;DHT22;57248;47.320;15.998;2023-03-01T09:25:07;7.34;58.24
69938;DHT22;57248;47.320;15.998;2023-03-01T09:27:40;7.34;56.27
69938;DHT22;57248;47.320;15.998;2023-03-01T09:30:12;7.07;56.65
69938;DHT22;57248;47.320;15.998;2023-03-01T09:32:45;7.71;55.87
69938;DHT22;57248;47.320;15.998;2023-03-01T09:35:17;7.59;54.96
69938;DHT22;57248;47.320;15.998;2023-03-01T09:37:51;6.99;55.94
69938;DHT22;57248;47.320;15.998;2023-03-01T09:40:26;7.04;57.56
69938;DHT22;57248;47.320;15.998;2023-03-01T09:43:08;6.71;57.55
69938;DHT22;57248;47.320;15.998;2023-03-01T09:45:46;6.80;58.21
69938;DHT22;57248;47.320;15.998;2023-03-01T09:48:24;6.62;58.26
69938;DHT22;57248;47.320;15.998;2023-03-01T09:50:56;6.77;58.51
69938;DHT22;57248;47.320;15.998;2023-03-01T09:53:37;6.46;58.63
69938;DHT22;57248;47.320;15.998;2023-03-01T09:56:24;6.22;59.09
69938;DHT22;57248;47.320;15.998;2023-03-01T10:04:51;7.00;58.51
69938;DHT22;57248;47.320;15.998;2023-03-01T10:10:29;6.59;58.52
69938;DHT22;57248;47.320;15.998;2023-03-01T10:13:25;6.93;58.77
69938;DHT22;57248;47.320;15.998;2023-03-01T10:16:21;6.42;59.81
69938;DHT22;57248;47.320;15.998;2023-03-01T10:18:59;6.77;58.77
69938;DHT22;57248;47.320;15.998;2023-03-01T10:21:35;7.08;57.06
69938;DHT22;57248;47.320;15.998;2023-03-01T10:24:13;6.97;57.32
69938;DHT22;57248;47.320;15.998;2023-03-01T10:26:55;7.41;57.90
69938;DHT22;57248;47.320;15.998;2023-03-01T10:29:41;7.34;57.41
69938;DHT22;57248;47.320;15.998;2023-03-01T10:32:18;7.17;57.66
69938;DHT22;57248;47.320;15.998;2023-03-01T10:34:51;7.68;56.08
69938;DHT22;57248;47.320;15.998;2023-03-01T10:37:23;8.16;55.25
69938;DHT22;57248;47.320;15.998;2023-03-01T10:42:32;8.72;55.03
69938;DHT22;57248;47.320;15.998;2023-03-01T10:45:38;9.26;52.35
69938;DHT22;57248;47.320;15.998;2023-03-01T10:50:46;9.47;51.28
69938;DHT22;57248;47.320;15.998;2023-03-01T10:53:26;9.08;51.65
69938;DHT22;57248;47.320;15.998;2023-03-01T10:56:11;8.98;52.37
69938;DHT22;57248;47.320;15.998;2023-03-01T10:59:03;8.43;54.00
69938;DHT22;57248;47.320;15.998;2023-03-01T11:01:36;7.63;54.32
69938;DHT22;57248;47.320;15.998;2023-03-01T11:04:10;7.05;55.26
69938;DHT22;57248;47.320;15.998;2023-03-01T11:06:43;7.61;54.41
69938;DHT22;57248;47.320;15.998;2023-03-01T11:09:20;7.23;55.19
69938;DHT22;57248;47.320;15.998;2023-03-01T11:11:57;7.44;55.23
69938;DHT22;57248;47.320;15.998;2023-03-01T11:14:24;7.51;55.03
69938;DHT22;57248;47.320;15.998;2023-03-01T11:17:03;7.93;54.61
69938;DHT22;57248;47.320;15.998;2023-03-01T11:19:36;8.54;53.56
69938;DHT22;57248;47.320;15.998;2023-03-01T11:22:19;7.89;53.90
69938;DHT22;57248;47.320;15.998;2023-03-01T11:24:54;7.90;54.15
69938;DHT22;57248;47.320;15.998;2023-03-01T11:27:41;8.13;53.64
69938;DHT22;57248;47.320;15.998;2023-03-01T11:30:24;9.12;52.41
69938;DHT22;57248;47.320;15.998;2023-03-01T11:35:53;8.99;51.85
69938;DHT22;57248;47.320;15.998;2023-03-01T11:38:30;8.99;51.93
69938;DHT22;57248;47.320;15.998;2023-03-01T11:44:19;9.47;51.90
69938;DHT22;57248;47.320;15.998;2023-03-01T11:53:22;10.22;49.45
69938;DHT22;57248;47.320;15.998;2023-03-01T12:01:55;10.60;48.94
69938;DHT22;57248;47.320;15.998;2023-03-01T12:04:59;10.89;48.52
69938;DHT22;57248;47.320;15.998;2023-03-01T12:08:03;10.45;49.40
69938;DHT22;57248;47.320;15.998;2023-03-01T12:11:10;10.15;51.01
69938;DHT22;57248;47.320;15.998;2023-03-01T12:26:38;11.39;48.54
69938;DHT22;57248;47.320;15.998;2023-03-01T12:32:10;12.10;48.03
69938;DHT22;57248;47.320;15.998;2023-03-01T12:34:55;13.22;45.94
69938;DHT22;57248;47.320;15.998;2023-03-01T12:37:45;15.45;44.17
69938;DHT22;57248;47.320;15.998;2023-03-01T12:43:17;16.31;40.55
69938;DHT22;57248;47.320;15.998;2023-03-01T12:46:28;15.26;41.03
69938;DHT22;57248;47.320;15.998;2023-03-01T12:49:09;14.36;43.04
69938;DHT22;57248;47.320;15.998;2023-03-01T12:54:44;13.97;44.50
69938;DHT22;57248;47.320;15.998;2023-03-01T13:00:37;13.20;44.18
69938;DHT22;57248;47.320;15.998;2023-03-01T13:06:10;12.79;46.07
69938;DHT22;57248;47.320;15.998;2023-03-01T13:11:22;12.60;46.78
69938;DHT22;57248;47.320;15.998;2023-03-01T13:16:53;12.23;48.09
69938;DHT22;57248;47.320;15.998;2023-03-01T13:19:25;12.52;47.96
69938;DHT22;57248;47.320;15.998;2023-03-01T13:21:58;12.52;48.95
69938;DHT22;57248;47.320;15.998;2023-03-01T13:24:40;11.82;49.92
69938;DHT22;57248;47.320;15.998;2023-03-01T13:29:54;11.21;51.46
69938;DHT22;57248;47.320;15.998;2023-03-01T13:32:33;10.81;51.21
69938;DHT22;57248;47.320;15.998;2023-03-01T13:37:46;11.32;51.25
69938;DHT22;57248;47.320;15.998;2023-03-01T13:42:52;10.96;51.97
69938;DHT22;57248;47.320;15.998;2023-03-01T13:45:42;10.21;52.52
69938;DHT22;57248;47.320;15.998;2023-03-01T13:51:00;10.72;52.11
69938;DHT22;57248;47.320;15.998;2023-03-01T13:53:46;10.50;53.50
69938;DHT22;57248;47.320;15.998;2023-03-01T13:56:23;10.90;53.07
69938;DHT22;57248;47.320;15.998;2023-03-01T13:59:02;10.50;52.64
69938;DHT22;57248;47.320;15.998;2023-03-01T14:01:36;10.38;53.45
69938;DHT22;57248;47.320;15.998;2023-03-01T14:04:25;10.28;54.74
69938;DHT22;57248;47.320;15.998;2023-03-01T14:07:12;10.06;55.43
69938;DHT22;57248;47.320;15.998;2023-03-01T14:09:46;9.95;55.86
69938;DHT22;57248;47.320;15.998;2023-03-01T14:15:01;9.40;57.95
69938;DHT22;57248;47.320;15.998;2023-03-01T14:17:44;9.61;56.77
69938;DHT22;57248;47.320;15.998;2023-03-01T14:20:21;9.44;57.00
69938;DHT22;57248;47.320;15.998;2023-03-01T14:22:56;9.57;57.41
69938;DHT22;57248;47.320;15.998;2023-03-01T14:25:32;9.19;58.54
69938;DHT22;57248;47.320;15.998;2023-03-01T14:28:20;8.89;58.44
69938;DHT22;57248;47.320;15.998;2023-03-01T14:30:56;8.75;60.11
69938;DHT22;57248;47.320;15.998;2023-03-01T14:33:35;8.67;59.97
69938;DHT22;57248;47.320;15.998;2023-03-01T14:36:13;8.48;61.36
69938;DHT22;57248;47.320;15.998;2023-03-01T14:38:46;8.51;62.28
69938;DHT22;57248;47.320;15.998;2023-03-01T14:41:22;8.31;60.90
69938;DHT22;57248;47.320;15.998;2023-03-01T14:44:06;8.26;61.62
69938;DHT22;57248;47.320;15.998;2023-03-01T14:46:41;7.90;63.03
69938;DHT22;57248;47.320;15.998;2023-03-01T14:49:20;7.73;63.36
69938;DHT22;57248;47.320;15.998;2023-03-01T14:52:18;7.63;63.67
69938;DHT22;57248;47.320;15.998;2023-03-01T14:55:07;7.71;63.61
69938;DHT22;57248;47.320;15.998;2023-03-01T14:57:47;7.54;64.90
69938;DHT22;57248;47.320;15.998;2023-03-01T15:00:24;7.72;63.79
69938;DHT22;57248;47.320;15.998;2023-03-01T15:03:02;7.85;64.02
69938;DHT22;57248;47.320;15.998;2023-03-01T15:05:42;7.99;62.37
69938;DHT22;57248;47.320;15.998;2023-03-01T15:08:20;8.20;61.62
69938;DHT22;57248;47.320;15.998;2023-03-01T15:13:34;7.89;63.28
69938;DHT22;57248;47.320;15.998;2023-03-01T15:16:11;7.61;64.02
69938;DHT22;57248;47.320;15.998;2023-03-01T15:18:46;7.27;65.66
69938;DHT22;57248;47.320;15.998;2023-03-01T15:21:27;7.61;65.17
69938;DHT22;57248;47.320;15.998;2023-03-01T15:24:08;7.41;64.77
69938;DHT22;57248;47.320;15.998;2023-03-01T15:26:57;7.36;65.96
69938;DHT22;57248;47.320;15.998;2023-03-01T15:29:34;7.40;66.01
69938;DHT22;57248;47.320;15.998;2023-03-01T15:35:01;7.32;66.27
69938;DHT22;57248;47.320;15.998;2023-03-01T15:37:52;6.79;67.82
69938;DHT22;57248;47.320;15.998;2023-03-01T15:40:27;7.03;67.56
69938;DHT22;57248;47.320;15.998;2023-03-01T15:43:38;6.80;68.11
69938;DHT22;57248;47.320;15.998;2023-03-01T15:49:40;6.68;68.77
69938;DHT22;57248;47.320;15.998;2023-03-01T15:52:27;6.62;68.44
69938;DHT22;57248;47.320;15.998;2023-03-01T15:55:23;6.75;68.36
69938;DHT22;57248;47.320;15.998;2023-03-01T15:58:16;6.41;70.67
69938;DHT22;57248;47.320;15.998;2023-03-01T16:00:49;6.53;70.51
69938;DHT22;57248;47.320;15.998;2023-03-01T16:03:23;6.36;70.10
69938;DHT22;57248;47.320;15.998;2023-03-01T16:05:55;6.34;71.22
69938;DHT22;57248;47.320;15.998;2023-03-01T16:08:27;6.29;71.91
69938;DHT22;57248;47.320;15.998;2023-03-01T16:10:59;6.26;71.67
69938;DHT22;57248;47.320;15.998;2023-03-01T16:13:31;6.32;71.65
69938;DHT22;57248;47.320;15.998;2023-03-01T16:16:03;6.08;74.02
69938;DHT22;57248;47.320;15.998;2023-03-01T16:18:35;5.97;73.85
69938;DHT22;57248;47.320;15.998;2023-03-01T16:21:14;5.94;75.08
69938;DHT22;57248;47.320;15.998;2023-03-01T16:23:47;5.90;75.74
69938;DHT22;57248;47.320;15.998;2023-03-01T16:26:20;5.75;75.63
69938;DHT22;57248;47.320;15.998;2023-03-01T16:28:55;5.57;75.66
69938;DHT22;57248;47.320;15.998;2023-03-01T16:31:22;5.53;76.64
69938;DHT22;57248;47.320;15.998;2023-03-01T16:33:57;5.39;76.19
69938;DHT22;57248;47.320;15.998;2023-03-01T16:36:24;5.33;77.63
69938;DHT22;57248;47.320;15.998;2023-03-01T16:38:58;5.35;78.20
69938;DHT22;57248;47.320;15.998;2023-03-01T16:41:32;5.16;78.46
69938;DHT22;57248;47.320;15.998;2023-03-01T16:44:05;5.16;78.33
69938;DHT22;57248;47.320;15.998;2023-03-01T16:46:37;5.08;78.48
69938;DHT22;57248;47.320;15.998;2023-03-01T16:49:09;5.04;78.46
69938;DHT22;57248;47.320;15.998;2023-03-01T16:51:43;4.98;78.61
69938;DHT22;57248;47.320;15.998;2023-03-01T16:54:23;4.96;78.84
69938;DHT22;57248;47.320;15.998;2023-03-01T16:56:55;4.91;79.85
69938;DHT22;57248;47.320;15.998;2023-03-01T16:59:27;4.85;78.81
69938;DHT22;57248;47.320;15.998;2023-03-01T17:02:00;4.85;79.35
69938;DHT22;57248;47.320;15.998;2023-03-01T17:04:32;5.19;80.49
69938;DHT22;57248;47.320;15.998;2023-03-01T17:07:05;5.07;78.68
69938;DHT22;57248;47.320;15.998;2023-03-01T17:09:37;5.05;78.09
69938;DHT22;57248;47.320;15.998;2023-03-01T17:12:11;4.89;76.88
69938;DHT22;57248;47.320;15.998;2023-03-01T17:14:43;4.87;78.22
69938;DHT22;57248;47.320;15.998;2023-03-01T17:17:15;4.96;78.22
69938;DHT22;57248;47.320;15.998;2023-03-01T17:19:47;4.98;78.46
69938;DHT22;57248;47.320;15.998;2023-03-01T17:22:21;5.02;78.13
69938;DHT22;57248;47.320;15.998;2023-03-01T17:24:53;4.99;78.07
69938;DHT22;57248;47.320;15.998;2023-03-01T17:27:26;4.99;78.72
69938;DHT22;57248;47.320;15.998;2023-03-01T17:29:58;5.02;78.45
69938;DHT22;57248;47.320;15.998;2023-03-01T17:32:31;5.02;78.59
69938;DHT22;57248;47.320;15.998;2023-03-01T17:35:03;4.94;78.61
69938;DHT22;57248;47.320;15.998;2023-03-01T17:37:38;4.89;79.06
69938;DHT22;57248;47.320;15.998;2023-03-01T17:40:12;4.74;79.90
69938;DHT22;57248;47.320;15.998;2023-03-01T17:42:44;4.74;80.56
69938;DHT22;57248;47.320;15.998;2023-03-01T17:45:16;4.78;80.07
69938;DHT22;57248;47.320;15.998;2023-03-01T17:47:48;4.84;79.14
69938;DHT22;57248;47.320;15.998;2023-03-01T17:50:21;4.77;81.24
69938;DHT22;57248;47.320;15.998;2023-03-01T17:52:53;4.73;80.63
69938;DHT22;57248;47.320;15.998;2023-03-01T17:55:41;4.74;81.95